createdAt,value
2019-05-02T00:00:02.248Z,8.38
2019-05-02T00:01:02.220Z,8.38
2019-05-02T00:02:02.131Z,8.33
2019-05-02T00:03:04.486Z,8.33
2019-05-02T00:04:02.064Z,8.31
2019-05-02T00:05:01.974Z,8.31
2019-05-02T00:06:02.886Z,8.33
2019-05-02T00:07:01.910Z,8.27
2019-05-02T00:08:01.833Z,8.26
2019-05-02T00:09:03.943Z,8.28
2019-05-02T00:10:01.703Z,8.34
2019-05-02T00:11:01.649Z,8.34
2019-05-02T00:12:01.634Z,8.33
2019-05-02T00:13:01.543Z,8.34
2019-05-02T00:14:01.490Z,8.20
2019-05-02T00:15:02.432Z,8.28
2019-05-02T00:16:01.386Z,8.26
2019-05-02T00:17:01.329Z,8.20
2019-05-02T00:18:01.574Z,8.18
2019-05-02T00:19:01.220Z,8.18
2019-05-02T00:20:01.196Z,8.24
2019-05-02T00:21:02.890Z,8.24
2019-05-02T00:22:01.064Z,8.28
2019-05-02T00:23:01.005Z,8.24
2019-05-02T00:24:03.013Z,8.15
2019-05-02T00:25:00.931Z,8.12
2019-05-02T00:26:00.845Z,8.15
2019-05-02T00:27:01.346Z,8.23
2019-05-02T00:28:00.767Z,8.13
2019-05-02T00:29:00.682Z,8.23
2019-05-02T00:30:00.630Z,8.26
2019-05-02T00:31:00.575Z,8.30
2019-05-02T00:32:00.524Z,8.26
2019-05-02T00:33:00.500Z,8.20
2019-05-02T00:34:00.415Z,8.28
2019-05-02T00:35:00.363Z,8.30
2019-05-02T00:36:00.305Z,8.26
2019-05-02T00:37:00.284Z,8.36
2019-05-02T00:38:02.437Z,8.27
2019-05-02T00:39:00.145Z,8.19
2019-05-02T00:40:00.091Z,8.26
2019-05-02T00:41:02.123Z,8.19
2019-05-02T00:42:12.036Z,8.18
2019-05-02T00:42:59.970Z,8.13
2019-05-02T00:43:59.875Z,8.23
2019-05-02T00:44:59.824Z,8.18
2019-05-02T00:46:00.904Z,8.20
2019-05-02T00:46:59.716Z,8.20
2019-05-02T00:47:59.696Z,8.23
2019-05-02T00:49:01.814Z,8.19
2019-05-02T00:49:59.584Z,8.23
2019-05-02T00:50:59.500Z,8.24
2019-05-02T00:52:01.473Z,8.24
2019-05-02T00:52:59.394Z,8.18
2019-05-02T00:53:59.374Z,8.16
2019-05-02T00:54:59.878Z,8.10
2019-05-02T00:55:59.262Z,8.12
2019-05-02T00:56:59.178Z,8.09
2019-05-02T00:57:59.123Z,8.03
2019-05-02T00:59:02.249Z,8.00
2019-05-02T00:59:59.046Z,7.95
2019-05-02T01:00:58.962Z,7.95
2019-05-02T01:01:59.956Z,7.95
2019-05-02T01:02:58.853Z,7.93
2019-05-02T01:03:58.797Z,7.91
2019-05-02T01:04:59.348Z,7.87
2019-05-02T01:05:58.690Z,7.79
2019-05-02T01:06:58.637Z,7.80
2019-05-02T01:08:01.050Z,7.75
2019-05-02T01:08:58.534Z,7.77
2019-05-02T01:09:58.507Z,7.67
2019-05-02T01:10:58.423Z,7.76
2019-05-02T01:11:58.370Z,7.77
2019-05-02T01:12:58.315Z,7.77
2019-05-02T01:13:58.291Z,7.75
2019-05-02T01:14:58.210Z,7.60
2019-05-02T01:15:58.188Z,7.63
2019-05-02T01:16:58.099Z,7.70
2019-05-02T01:18:01.162Z,7.58
2019-05-02T01:18:57.995Z,7.67
2019-05-02T01:19:57.937Z,7.66
2019-05-02T01:21:02.343Z,7.60
2019-05-02T01:21:57.827Z,7.60
2019-05-02T01:22:57.774Z,7.61
2019-05-02T01:23:59.034Z,7.63
2019-05-02T01:24:57.669Z,7.58
2019-05-02T01:25:57.657Z,7.61
2019-05-02T01:26:59.902Z,7.58
2019-05-02T01:27:57.502Z,7.57
2019-05-02T01:28:57.461Z,7.57
2019-05-02T01:30:01.415Z,7.67
2019-05-02T01:30:57.374Z,7.61
2019-05-02T01:31:57.288Z,7.57
2019-05-02T01:33:01.505Z,7.63
2019-05-02T01:33:57.213Z,7.60
2019-05-02T01:34:57.151Z,7.54
2019-05-02T01:35:57.067Z,7.57
2019-05-02T01:36:57.021Z,7.53
2019-05-02T01:37:56.961Z,7.53
2019-05-02T01:38:56.938Z,7.54
2019-05-02T01:39:56.851Z,7.54
2019-05-02T01:40:56.799Z,7.48
2019-05-02T01:41:59.938Z,7.47
2019-05-02T01:42:56.731Z,7.43
2019-05-02T01:44:00.043Z,7.48
2019-05-02T01:44:56.584Z,7.39
2019-05-02T01:45:56.523Z,7.40
2019-05-02T01:46:58.884Z,7.38
2019-05-02T01:47:56.455Z,7.38
2019-05-02T01:48:56.364Z,7.36
2019-05-02T01:49:57.259Z,7.40
2019-05-02T01:50:56.252Z,7.50
2019-05-02T01:51:56.199Z,7.38
2019-05-02T01:52:58.664Z,7.47
2019-05-02T01:53:56.096Z,7.47
2019-05-02T01:54:56.036Z,7.50
2019-05-02T01:55:57.763Z,7.48
2019-05-02T01:56:55.964Z,7.61
2019-05-02T01:57:55.875Z,7.67
2019-05-02T01:58:57.734Z,7.57
2019-05-02T01:59:55.766Z,7.66
2019-05-02T02:00:55.720Z,7.72
2019-05-02T02:01:58.019Z,7.67
2019-05-02T02:02:55.602Z,7.77
2019-05-02T02:03:55.580Z,7.73
2019-05-02T02:04:56.948Z,7.82
2019-05-02T02:05:55.439Z,7.75
2019-05-02T02:06:55.388Z,7.58
2019-05-02T02:07:55.939Z,7.61
2019-05-02T02:08:55.317Z,7.51
2019-05-02T02:09:55.220Z,7.58
2019-05-02T02:10:56.067Z,7.54
2019-05-02T02:11:55.114Z,7.51
2019-05-02T02:13:03.695Z,7.45
2019-05-02T02:13:55.037Z,7.45
2019-05-02T02:14:55.556Z,7.39
2019-05-02T02:15:54.937Z,7.40
2019-05-02T02:16:54.843Z,7.48
2019-05-02T02:17:54.786Z,7.45
2019-05-02T02:18:59.123Z,7.45
2019-05-02T02:19:54.680Z,7.43
2019-05-02T02:20:54.656Z,7.48
2019-05-02T02:21:57.600Z,7.43
2019-05-02T02:22:54.550Z,7.43
2019-05-02T02:23:54.468Z,7.50
2019-05-02T02:24:55.944Z,7.47
2019-05-02T02:25:54.352Z,7.51
2019-05-02T02:26:54.298Z,7.47
2019-05-02T02:27:54.930Z,7.43
2019-05-02T02:28:54.236Z,7.39
2019-05-02T02:29:54.136Z,7.48
2019-05-02T02:30:57.923Z,7.43
2019-05-02T02:31:54.091Z,7.42
2019-05-02T02:33:00.866Z,7.36
2019-05-02T02:33:53.921Z,7.35
2019-05-02T02:34:53.865Z,7.40
2019-05-02T02:35:53.811Z,7.35
2019-05-02T02:36:53.790Z,7.31
2019-05-02T02:37:55.737Z,7.36
2019-05-02T02:38:53.645Z,7.48
2019-05-02T02:39:54.025Z,7.28
2019-05-02T02:40:53.540Z,7.38
2019-05-02T02:41:54.231Z,7.35
2019-05-02T02:42:53.429Z,7.28
2019-05-02T02:43:54.654Z,7.25
2019-05-02T02:44:53.320Z,7.28
2019-05-02T02:45:57.964Z,7.25
2019-05-02T02:46:53.248Z,7.18
2019-05-02T02:47:59.815Z,7.18
2019-05-02T02:48:53.106Z,7.20
2019-05-02T02:49:56.117Z,7.11
2019-05-02T02:50:52.991Z,7.20
2019-05-02T02:51:57.806Z,7.06
2019-05-02T02:52:52.917Z,7.03
2019-05-02T02:54:03.227Z,7.03
2019-05-02T02:54:52.787Z,7.05
2019-05-02T02:56:01.143Z,6.99
2019-05-02T02:56:52.666Z,7.00
2019-05-02T02:57:52.675Z,7.02
2019-05-02T02:58:52.559Z,7.02
2019-05-02T02:59:52.502Z,7.02
2019-05-02T03:00:52.475Z,6.97
2019-05-02T03:01:52.394Z,7.06
2019-05-02T03:02:52.379Z,7.00
2019-05-02T03:03:52.284Z,7.03
2019-05-02T03:04:52.233Z,7.11
2019-05-02T03:05:52.174Z,7.02
2019-05-02T03:06:52.153Z,7.13
2019-05-02T03:07:52.070Z,7.14
2019-05-02T03:08:52.011Z,7.14
2019-05-02T03:09:51.955Z,7.17
2019-05-02T03:10:51.903Z,7.05
2019-05-02T03:11:56.169Z,7.03
2019-05-02T03:12:51.793Z,7.05
2019-05-02T03:13:53.500Z,7.02
2019-05-02T03:14:51.688Z,7.07
2019-05-02T03:15:51.632Z,7.07
2019-05-02T03:16:51.605Z,7.02
2019-05-02T03:17:51.517Z,7.03
2019-05-02T03:18:51.464Z,7.06
2019-05-02T03:19:54.481Z,7.05
2019-05-02T03:20:51.354Z,7.05
2019-05-02T03:21:54.215Z,7.06
2019-05-02T03:22:51.248Z,7.05
2019-05-02T03:24:02.242Z,7.05
2019-05-02T03:24:51.170Z,7.06
2019-05-02T03:25:51.638Z,7.05
2019-05-02T03:26:55.414Z,7.05
2019-05-02T03:27:51.001Z,6.96
2019-05-02T03:28:57.141Z,7.02
2019-05-02T03:29:50.867Z,6.99
2019-05-02T03:30:50.808Z,7.00
2019-05-02T03:32:11.608Z,7.02
2019-05-02T03:33:06.727Z,7.00
2019-05-02T03:33:56.642Z,6.97
2019-05-02T03:34:53.589Z,6.93
2019-05-02T03:35:50.555Z,6.89
2019-05-02T03:36:50.482Z,6.97
2019-05-02T03:37:51.510Z,6.97
2019-05-02T03:38:50.371Z,6.97
2019-05-02T03:39:57.540Z,6.95
2019-05-02T03:40:50.261Z,6.96
2019-05-02T03:41:55.681Z,6.96
2019-05-02T03:42:50.192Z,6.95
2019-05-02T03:43:50.113Z,6.89
2019-05-02T03:44:56.102Z,6.85
2019-05-02T03:45:49.988Z,6.82
2019-05-02T03:46:54.324Z,6.78
2019-05-02T03:47:49.915Z,6.77
2019-05-02T03:48:49.855Z,6.75
2019-05-02T03:49:52.383Z,6.81
2019-05-02T03:50:49.714Z,6.88
2019-05-02T03:51:56.040Z,6.88
2019-05-02T03:52:49.610Z,6.85
2019-05-02T03:53:49.591Z,6.88
2019-05-02T03:54:52.272Z,6.87
2019-05-02T03:55:49.438Z,6.92
2019-05-02T03:56:51.316Z,6.95
2019-05-02T03:57:49.328Z,6.95
2019-05-02T03:58:56.467Z,6.95
2019-05-02T03:59:49.224Z,6.89
2019-05-02T04:01:00.319Z,6.85
2019-05-02T04:01:49.112Z,6.85
2019-05-02T04:02:59.571Z,6.85
2019-05-02T04:03:49.043Z,6.78
2019-05-02T04:04:54.284Z,6.78
2019-05-02T04:05:48.890Z,6.81
2019-05-02T04:06:54.958Z,6.84
2019-05-02T04:07:48.780Z,6.75
2019-05-02T04:08:58.763Z,6.78
2019-05-02T04:09:48.681Z,6.75
2019-05-02T04:10:52.650Z,6.75
2019-05-02T04:11:48.560Z,6.79
2019-05-02T04:12:53.070Z,6.75
2019-05-02T04:13:48.486Z,6.75
2019-05-02T04:14:48.418Z,6.72
2019-05-02T04:15:48.341Z,6.81
2019-05-02T04:16:54.623Z,6.84
2019-05-02T04:17:48.238Z,6.82
2019-05-02T04:18:54.722Z,6.77
2019-05-02T04:19:48.152Z,6.78
2019-05-02T04:20:49.642Z,6.78
2019-05-02T04:21:52.545Z,6.81
2019-05-02T04:22:49.007Z,6.79
2019-05-02T04:23:47.903Z,6.75
2019-05-02T04:24:54.305Z,6.79
2019-05-02T04:25:47.793Z,6.87
2019-05-02T04:26:54.051Z,6.85
2019-05-02T04:27:47.683Z,6.85
2019-05-02T04:28:51.623Z,6.87
2019-05-02T04:29:47.621Z,6.77
2019-05-02T04:30:51.150Z,6.75
2019-05-02T04:31:47.470Z,6.77
2019-05-02T04:32:49.774Z,6.77
2019-05-02T04:33:47.353Z,6.75
2019-05-02T04:34:48.953Z,6.84
2019-05-02T04:35:47.284Z,6.74
2019-05-02T04:36:53.461Z,6.78
2019-05-02T04:37:47.135Z,6.75
2019-05-02T04:38:51.724Z,6.75
2019-05-02T04:39:49.102Z,6.82
2019-05-02T04:40:49.593Z,6.79
2019-05-02T04:41:48.522Z,6.79
2019-05-02T04:42:53.511Z,6.77
2019-05-02T04:43:54.647Z,6.85
2019-05-02T04:45:08.813Z,6.82
2019-05-02T04:45:55.745Z,6.96
2019-05-02T04:46:48.823Z,6.92
2019-05-02T04:47:57.505Z,6.97
2019-05-02T04:48:49.728Z,7.02
2019-05-02T04:49:51.350Z,6.99
2019-05-02T04:50:48.309Z,7.00
2019-05-02T04:51:50.710Z,7.05
2019-05-02T04:52:52.206Z,7.06
2019-05-02T04:53:49.551Z,7.05
2019-05-02T04:54:48.598Z,7.15
2019-05-02T04:55:52.037Z,7.20
2019-05-02T04:56:49.505Z,7.25
2019-05-02T04:57:50.609Z,7.20
2019-05-02T04:58:48.974Z,7.28
2019-05-02T04:59:50.059Z,7.21
2019-05-02T05:00:53.633Z,7.18
2019-05-02T05:01:52.785Z,7.18
2019-05-02T05:02:48.430Z,7.28
2019-05-02T05:03:49.222Z,7.28
2019-05-02T05:04:48.699Z,7.38
2019-05-02T05:05:47.765Z,7.33
2019-05-02T05:06:54.891Z,7.33
2019-05-02T05:07:46.560Z,7.35
2019-05-02T05:08:48.067Z,7.39
2019-05-02T05:09:50.031Z,7.39
2019-05-02T05:10:45.321Z,7.36
2019-05-02T05:11:45.310Z,7.31
2019-05-02T05:12:45.216Z,7.35
2019-05-02T05:13:45.155Z,7.39
2019-05-02T05:14:45.133Z,7.45
2019-05-02T05:15:49.479Z,7.45
2019-05-02T05:16:50.274Z,7.53
2019-05-02T05:17:44.940Z,7.50
2019-05-02T05:18:49.371Z,7.42
2019-05-02T05:19:44.828Z,7.38
2019-05-02T05:20:46.001Z,7.40
2019-05-02T05:21:44.762Z,7.40
2019-05-02T05:22:45.948Z,7.42
2019-05-02T05:23:44.609Z,7.48
2019-05-02T05:24:44.556Z,7.54
2019-05-02T05:25:44.504Z,7.56
2019-05-02T05:26:44.479Z,7.56
2019-05-02T05:27:44.391Z,7.69
2019-05-02T05:28:44.571Z,7.69
2019-05-02T05:29:45.990Z,7.76
2019-05-02T05:30:45.533Z,7.75
2019-05-02T05:31:44.211Z,7.79
2019-05-02T05:32:44.155Z,7.83
2019-05-02T05:33:44.062Z,7.88
2019-05-02T05:34:44.029Z,7.93
2019-05-02T05:35:50.978Z,7.94
2019-05-02T05:36:43.910Z,8.03
2019-05-02T05:37:51.485Z,8.05
2019-05-02T05:38:43.805Z,8.03
2019-05-02T05:39:48.761Z,8.12
2019-05-02T05:40:43.681Z,8.15
2019-05-02T05:41:50.873Z,8.13
2019-05-02T05:42:43.602Z,8.15
2019-05-02T05:43:44.898Z,8.19
2019-05-02T05:44:43.501Z,8.26
2019-05-02T05:45:53.848Z,8.31
2019-05-02T05:46:43.357Z,8.34
2019-05-02T05:47:43.310Z,8.48
2019-05-02T05:48:43.247Z,8.48
2019-05-02T05:49:43.228Z,8.49
2019-05-02T05:50:43.145Z,8.51
2019-05-02T05:51:43.089Z,8.61
2019-05-02T05:52:43.031Z,8.69
2019-05-02T05:53:42.980Z,8.67
2019-05-02T05:54:42.959Z,8.70
2019-05-02T05:55:42.874Z,8.70
2019-05-02T05:56:43.299Z,8.76
2019-05-02T05:57:42.796Z,8.92
2019-05-02T05:58:50.509Z,8.89
2019-05-02T05:59:42.657Z,8.92
2019-05-02T06:00:45.982Z,9.08
2019-05-02T06:01:42.550Z,9.08
2019-05-02T06:02:53.034Z,9.10
2019-05-02T06:03:44.960Z,9.21
2019-05-02T06:04:42.386Z,9.29
2019-05-02T06:05:42.371Z,9.39
2019-05-02T06:06:42.278Z,9.43
2019-05-02T06:07:44.908Z,9.55
2019-05-02T06:08:42.171Z,9.54
2019-05-02T06:09:42.117Z,9.61
2019-05-02T06:10:43.911Z,9.68
2019-05-02T06:11:42.009Z,9.64
2019-05-02T06:12:41.987Z,9.80
2019-05-02T06:13:42.871Z,9.83
2019-05-02T06:14:41.849Z,9.83
2019-05-02T06:15:41.836Z,10.01
2019-05-02T06:16:46.581Z,9.98
2019-05-02T06:17:41.688Z,10.01
2019-05-02T06:18:43.425Z,10.07
2019-05-02T06:19:41.588Z,10.15
2019-05-02T06:20:41.528Z,10.19
2019-05-02T06:21:45.234Z,10.22
2019-05-02T06:22:41.458Z,10.30
2019-05-02T06:23:41.677Z,10.28
2019-05-02T06:24:41.318Z,10.40
2019-05-02T06:25:42.724Z,10.48
2019-05-02T06:26:44.661Z,10.51
2019-05-02T06:27:41.188Z,10.53
2019-05-02T06:28:42.142Z,10.53
2019-05-02T06:29:41.086Z,10.59
2019-05-02T06:30:40.998Z,10.61
2019-05-02T06:31:43.050Z,10.67
2019-05-02T06:32:40.895Z,10.76
2019-05-02T06:33:40.843Z,10.81
2019-05-02T06:34:46.385Z,10.82
2019-05-02T06:35:40.737Z,10.89
2019-05-02T06:36:40.681Z,10.93
2019-05-02T06:37:40.940Z,11.05
2019-05-02T06:38:40.611Z,11.11
2019-05-02T06:39:40.527Z,11.19
2019-05-02T06:40:44.810Z,11.23
2019-05-02T06:41:40.420Z,11.23
2019-05-02T06:42:40.396Z,11.29
2019-05-02T06:43:41.198Z,11.26
2019-05-02T06:44:40.264Z,11.40
2019-05-02T06:45:40.254Z,11.44
2019-05-02T06:46:40.157Z,11.55
2019-05-02T06:47:41.714Z,11.59
2019-05-02T06:48:40.054Z,11.50
2019-05-02T06:49:40.001Z,11.63
2019-05-02T06:50:40.577Z,11.63
2019-05-02T06:51:39.898Z,11.70
2019-05-02T06:52:39.846Z,11.80
2019-05-02T06:53:41.270Z,11.87
2019-05-02T06:54:39.740Z,11.97
2019-05-02T06:55:39.725Z,12.04
2019-05-02T06:56:43.158Z,12.09
2019-05-02T06:57:39.586Z,12.10
2019-05-02T06:58:41.920Z,12.13
2019-05-02T06:59:39.488Z,12.21
2019-05-02T07:00:55.688Z,12.27
2019-05-02T07:01:39.379Z,12.27
2019-05-02T07:02:39.329Z,12.24
2019-05-02T07:03:41.424Z,12.32
2019-05-02T07:04:39.225Z,12.43
2019-05-02T07:05:39.203Z,12.43
2019-05-02T07:06:55.940Z,12.50
2019-05-02T07:07:39.110Z,12.46
2019-05-02T07:08:39.100Z,12.62
2019-05-02T07:09:41.218Z,12.61
2019-05-02T07:10:44.751Z,12.60
2019-05-02T07:11:40.831Z,12.72
2019-05-02T07:12:38.816Z,12.79
2019-05-02T07:13:41.985Z,12.90
2019-05-02T07:14:38.714Z,12.93
2019-05-02T07:15:40.607Z,12.97
2019-05-02T07:16:39.062Z,13.08
2019-05-02T07:17:38.558Z,13.05
2019-05-02T07:18:42.018Z,13.13
2019-05-02T07:19:38.458Z,13.13
2019-05-02T07:20:40.582Z,13.16
2019-05-02T07:21:38.357Z,13.18
2019-05-02T07:22:39.209Z,13.13
2019-05-02T07:23:38.256Z,13.16
2019-05-02T07:24:38.204Z,13.16
2019-05-02T07:25:39.046Z,13.30
2019-05-02T07:26:38.101Z,13.27
2019-05-02T07:27:39.273Z,13.31
2019-05-02T07:28:40.434Z,13.33
2019-05-02T07:29:37.953Z,13.31
2019-05-02T07:30:37.902Z,13.38
2019-05-02T07:31:37.852Z,13.35
2019-05-02T07:32:37.801Z,13.59
2019-05-02T07:33:38.765Z,13.53
2019-05-02T07:34:37.703Z,13.54
2019-05-02T07:35:37.650Z,13.60
2019-05-02T07:36:38.380Z,13.75
2019-05-02T07:37:37.548Z,13.75
2019-05-02T07:38:37.533Z,13.75
2019-05-02T07:39:41.045Z,13.79
2019-05-02T07:40:37.400Z,13.95
2019-05-02T07:41:37.381Z,14.07
2019-05-02T07:42:41.840Z,14.23
2019-05-02T07:43:37.253Z,14.28
2019-05-02T07:44:37.199Z,14.20
2019-05-02T07:45:40.202Z,14.26
2019-05-02T07:46:37.101Z,14.33
2019-05-02T07:47:40.117Z,14.48
2019-05-02T07:48:37.042Z,14.58
2019-05-02T07:49:36.953Z,14.69
2019-05-02T07:50:41.186Z,14.69
2019-05-02T07:51:36.856Z,14.81
2019-05-02T07:52:36.806Z,14.81
2019-05-02T07:53:36.786Z,14.89
2019-05-02T07:54:36.704Z,15.02
2019-05-02T07:55:40.669Z,14.96
2019-05-02T07:56:36.607Z,15.02
2019-05-02T07:57:36.564Z,15.17
2019-05-02T07:58:38.014Z,15.29
2019-05-02T07:59:36.457Z,15.49
2019-05-02T08:00:37.165Z,15.62
2019-05-02T08:01:36.360Z,15.77
2019-05-02T08:02:36.316Z,15.91
2019-05-02T08:03:36.262Z,15.79
2019-05-02T08:04:36.215Z,15.82
2019-05-02T08:05:36.198Z,15.82
2019-05-02T08:06:40.068Z,16.00
2019-05-02T08:07:36.076Z,16.46
2019-05-02T08:08:36.424Z,16.87
2019-05-02T08:09:39.331Z,17.34
2019-05-02T08:10:35.958Z,17.67
2019-05-02T08:11:37.102Z,18.11
2019-05-02T08:12:35.827Z,18.37
2019-05-02T08:13:35.779Z,18.47
2019-05-02T08:14:36.442Z,18.92
2019-05-02T08:15:35.730Z,19.22
2019-05-02T08:16:35.702Z,19.51
2019-05-02T08:17:35.586Z,19.54
2019-05-02T08:18:35.545Z,19.71
2019-05-02T08:19:39.860Z,19.79
2019-05-02T08:20:35.490Z,19.85
2019-05-02T08:21:35.403Z,19.95
2019-05-02T08:22:35.357Z,19.96
2019-05-02T08:23:35.307Z,20.10
2019-05-02T08:24:37.839Z,20.22
2019-05-02T08:25:35.257Z,20.39
2019-05-02T08:26:35.170Z,20.48
2019-05-02T08:27:36.671Z,20.59
2019-05-02T08:28:35.081Z,20.78
2019-05-02T08:29:35.028Z,20.90
2019-05-02T08:30:35.324Z,20.99
2019-05-02T08:31:34.977Z,21.06
2019-05-02T08:32:34.896Z,21.09
2019-05-02T08:33:35.873Z,21.20
2019-05-02T08:34:34.810Z,21.17
2019-05-02T08:35:34.755Z,21.32
2019-05-02T08:36:34.758Z,21.50
2019-05-02T08:37:35.428Z,21.75
2019-05-02T08:38:34.618Z,21.98
2019-05-02T08:39:35.231Z,22.11
2019-05-02T08:40:34.542Z,22.06
2019-05-02T08:41:34.522Z,21.79
2019-05-02T08:42:34.439Z,21.55
2019-05-02T08:43:34.395Z,21.18
2019-05-02T08:44:34.349Z,21.02
2019-05-02T08:45:38.279Z,20.87
2019-05-02T08:46:34.289Z,21.06
2019-05-02T08:47:34.214Z,21.03
2019-05-02T08:48:36.410Z,20.97
2019-05-02T08:49:34.129Z,21.14
2019-05-02T08:50:34.133Z,21.06
2019-05-02T08:51:34.037Z,21.05
2019-05-02T08:52:36.851Z,20.90
2019-05-02T08:53:33.948Z,20.81
2019-05-02T08:54:34.142Z,20.97
2019-05-02T08:55:33.889Z,21.05
2019-05-02T08:56:35.006Z,21.20
2019-05-02T08:57:34.558Z,21.05
2019-05-02T08:58:33.771Z,20.92
2019-05-02T08:59:33.682Z,21.00
2019-05-02T09:00:37.465Z,21.17
2019-05-02T09:01:35.328Z,21.20
2019-05-02T09:02:41.170Z,21.18
2019-05-02T09:03:53.899Z,20.77
2019-05-02T09:04:33.462Z,20.24
2019-05-02T09:05:36.388Z,19.59
2019-05-02T09:06:33.373Z,19.12
2019-05-02T09:07:37.020Z,18.89
2019-05-02T09:08:33.324Z,18.47
2019-05-02T09:09:33.240Z,18.37
2019-05-02T09:10:37.145Z,18.40
2019-05-02T09:11:33.153Z,18.63
2019-05-02T09:12:36.929Z,18.86
2019-05-02T09:13:33.160Z,18.99
2019-05-02T09:14:33.021Z,18.71
2019-05-02T09:15:35.218Z,18.99
2019-05-02T09:16:32.931Z,19.11
2019-05-02T09:17:38.266Z,19.37
2019-05-02T09:18:38.606Z,19.58
2019-05-02T09:19:34.902Z,19.62
2019-05-02T09:20:32.876Z,19.56
2019-05-02T09:21:35.950Z,18.92
2019-05-02T09:22:32.830Z,18.49
2019-05-02T09:23:36.964Z,18.73
2019-05-02T09:24:32.750Z,18.89
2019-05-02T09:25:32.563Z,19.31
2019-05-02T09:26:38.371Z,19.58
2019-05-02T09:27:32.444Z,19.84
2019-05-02T09:28:32.406Z,19.92
2019-05-02T09:29:32.783Z,19.63
2019-05-02T09:30:32.730Z,19.09
2019-05-02T09:31:32.262Z,18.86
2019-05-02T09:32:32.335Z,18.73
2019-05-02T09:33:32.339Z,18.92
2019-05-02T09:34:32.134Z,19.24
2019-05-02T09:35:32.839Z,19.70
2019-05-02T09:36:32.346Z,20.09
2019-05-02T09:37:32.200Z,20.11
2019-05-02T09:38:32.856Z,20.14
2019-05-02T09:39:36.410Z,20.21
2019-05-02T09:40:32.025Z,20.03
2019-05-02T09:41:36.103Z,19.56
2019-05-02T09:42:32.477Z,19.51
2019-05-02T09:43:37.439Z,19.40
2019-05-02T09:44:33.212Z,19.66
2019-05-02T09:45:33.398Z,19.36
2019-05-02T09:46:32.503Z,19.26
2019-05-02T09:47:33.245Z,19.49
2019-05-02T09:48:31.914Z,19.24
2019-05-02T09:49:32.441Z,19.24
2019-05-02T09:50:34.259Z,19.00
2019-05-02T09:51:32.425Z,18.43
2019-05-02T09:52:34.053Z,18.29
2019-05-02T09:53:32.335Z,18.38
2019-05-02T09:54:32.230Z,18.60
2019-05-02T09:55:31.812Z,19.21
2019-05-02T09:56:32.523Z,19.74
2019-05-02T09:57:32.035Z,20.11
2019-05-02T09:58:32.079Z,20.34
2019-05-02T09:59:32.872Z,20.51
2019-05-02T10:00:32.228Z,20.56
2019-05-02T10:01:31.686Z,20.55
2019-05-02T10:02:32.498Z,20.40
2019-05-02T10:03:31.961Z,19.66
2019-05-02T10:04:32.513Z,19.62
2019-05-02T10:05:32.186Z,19.86
2019-05-02T10:06:32.128Z,20.28
2019-05-02T10:07:32.422Z,20.24
2019-05-02T10:08:32.132Z,20.25
2019-05-02T10:09:32.269Z,20.32
2019-05-02T10:10:32.358Z,20.36
2019-05-02T10:11:32.182Z,20.44
2019-05-02T10:12:32.097Z,20.80
2019-05-02T10:13:31.845Z,21.00
2019-05-02T10:14:30.394Z,21.15
2019-05-02T10:15:32.549Z,20.99
2019-05-02T10:16:31.970Z,20.99
2019-05-02T10:17:32.072Z,20.72
2019-05-02T10:18:32.721Z,20.59
2019-05-02T10:19:30.148Z,20.75
2019-05-02T10:20:34.103Z,20.87
2019-05-02T10:21:31.814Z,21.14
2019-05-02T10:22:33.797Z,21.40
2019-05-02T10:23:31.930Z,21.39
2019-05-02T10:24:32.082Z,21.18
2019-05-02T10:25:32.806Z,21.17
2019-05-02T10:26:29.840Z,20.95
2019-05-02T10:27:29.823Z,20.81
2019-05-02T10:28:31.601Z,21.05
2019-05-02T10:29:29.936Z,21.30
2019-05-02T10:30:32.805Z,21.54
2019-05-02T10:31:33.365Z,21.69
2019-05-02T10:32:29.612Z,21.54
2019-05-02T10:33:33.630Z,21.50
2019-05-02T10:34:29.531Z,21.54
2019-05-02T10:35:37.200Z,21.40
2019-05-02T10:36:29.408Z,21.57
2019-05-02T10:37:32.433Z,21.80
2019-05-02T10:38:29.350Z,22.07
2019-05-02T10:39:33.983Z,22.18
2019-05-02T10:40:29.230Z,21.98
2019-05-02T10:41:33.472Z,21.72
2019-05-02T10:42:29.143Z,21.52
2019-05-02T10:43:29.136Z,21.51
2019-05-02T10:44:32.698Z,21.50
2019-05-02T10:45:29.021Z,21.67
2019-05-02T10:46:35.298Z,21.66
2019-05-02T10:47:28.935Z,21.79
2019-05-02T10:48:29.265Z,22.04
2019-05-02T10:49:28.878Z,22.18
2019-05-02T10:50:28.800Z,22.22
2019-05-02T10:51:28.763Z,21.99
2019-05-02T10:52:29.934Z,22.22
2019-05-02T10:53:28.706Z,22.26
2019-05-02T10:54:33.852Z,21.98
2019-05-02T10:55:28.614Z,21.93
2019-05-02T10:56:28.549Z,21.79
2019-05-02T10:57:28.504Z,22.06
2019-05-02T10:58:34.141Z,22.36
2019-05-02T10:59:28.443Z,22.65
2019-05-02T11:00:28.378Z,22.73
2019-05-02T11:01:28.370Z,22.96
2019-05-02T11:02:28.292Z,23.13
2019-05-02T11:03:28.253Z,23.13
2019-05-02T11:04:29.409Z,23.13
2019-05-02T11:05:28.197Z,23.20
2019-05-02T11:06:28.124Z,23.10
2019-05-02T11:07:28.122Z,22.96
2019-05-02T11:08:28.043Z,23.06
2019-05-02T11:09:27.996Z,23.25
2019-05-02T11:10:27.956Z,23.13
2019-05-02T11:11:27.911Z,23.09
2019-05-02T11:12:40.703Z,23.05
2019-05-02T11:13:27.831Z,23.02
2019-05-02T11:14:27.787Z,22.73
2019-05-02T11:15:27.745Z,22.15
2019-05-02T11:16:27.760Z,22.20
2019-05-02T11:17:27.661Z,22.26
2019-05-02T11:18:40.407Z,21.96
2019-05-02T11:19:27.580Z,21.62
2019-05-02T11:20:27.539Z,21.98
2019-05-02T11:21:27.545Z,22.39
2019-05-02T11:22:27.451Z,22.26
2019-05-02T11:23:27.430Z,22.14
2019-05-02T11:24:27.369Z,22.20
2019-05-02T11:25:27.329Z,22.43
2019-05-02T11:26:27.317Z,22.91
2019-05-02T11:27:27.249Z,23.32
2019-05-02T11:28:27.204Z,23.63
2019-05-02T11:29:27.159Z,23.87
2019-05-02T11:30:27.120Z,23.80
2019-05-02T11:31:27.115Z,23.46
2019-05-02T11:32:27.072Z,23.51
2019-05-02T11:33:26.997Z,23.68
2019-05-02T11:34:26.958Z,23.80
2019-05-02T11:35:26.912Z,23.65
2019-05-02T11:36:27.534Z,23.44
2019-05-02T11:37:27.810Z,23.20
2019-05-02T11:38:39.582Z,23.21
2019-05-02T11:39:35.275Z,23.21
2019-05-02T11:40:26.709Z,22.59
2019-05-02T11:41:26.666Z,22.35
2019-05-02T11:42:27.315Z,22.10
2019-05-02T11:43:26.582Z,21.64
2019-05-02T11:44:26.583Z,21.66
2019-05-02T11:45:26.500Z,21.80
2019-05-02T11:46:26.459Z,22.00
2019-05-02T11:47:26.765Z,21.98
2019-05-02T11:48:26.379Z,22.06
2019-05-02T11:49:26.339Z,22.20
2019-05-02T11:50:26.714Z,22.04
2019-05-02T11:51:26.253Z,22.02
2019-05-02T11:52:27.362Z,21.99
2019-05-02T11:53:29.454Z,22.08
2019-05-02T11:54:27.731Z,22.50
2019-05-02T11:55:29.036Z,22.50
2019-05-02T11:56:26.043Z,22.51
2019-05-02T11:57:28.500Z,22.72
2019-05-02T11:58:25.959Z,22.96
2019-05-02T11:59:28.253Z,22.93
2019-05-02T12:00:25.913Z,22.90
2019-05-02T12:01:35.564Z,22.93
2019-05-02T12:02:25.839Z,22.90
2019-05-02T12:03:28.097Z,22.96
2019-05-02T12:04:25.713Z,22.91
2019-05-02T12:05:26.531Z,23.00
2019-05-02T12:06:25.627Z,23.17
2019-05-02T12:07:25.621Z,23.41
2019-05-02T12:08:25.546Z,23.41
2019-05-02T12:09:25.547Z,23.48
2019-05-02T12:10:28.033Z,23.37
2019-05-02T12:11:25.423Z,22.83
2019-05-02T12:12:27.172Z,22.63
2019-05-02T12:13:25.341Z,22.50
2019-05-02T12:14:27.377Z,22.62
2019-05-02T12:15:25.257Z,22.45
2019-05-02T12:16:25.248Z,22.23
2019-05-02T12:17:25.174Z,22.10
2019-05-02T12:18:25.138Z,21.92
2019-05-02T12:19:25.153Z,21.95
2019-05-02T12:20:28.579Z,22.04
2019-05-02T12:21:25.007Z,22.22
2019-05-02T12:22:24.969Z,22.41
2019-05-02T12:23:24.964Z,22.38
2019-05-02T12:24:24.887Z,22.43
2019-05-02T12:25:24.844Z,22.51
2019-05-02T12:26:24.807Z,22.30
2019-05-02T12:27:24.760Z,22.22
2019-05-02T12:28:24.740Z,22.23
2019-05-02T12:29:24.682Z,22.28
2019-05-02T12:30:24.634Z,22.48
2019-05-02T12:31:24.593Z,22.50
2019-05-02T12:32:24.554Z,22.50
2019-05-02T12:33:24.551Z,22.62
2019-05-02T12:34:24.469Z,22.75
2019-05-02T12:35:24.429Z,22.84
2019-05-02T12:36:24.397Z,22.90
2019-05-02T12:37:24.345Z,23.05
2019-05-02T12:38:24.336Z,23.08
2019-05-02T12:39:24.297Z,22.99
2019-05-02T12:40:24.219Z,22.93
2019-05-02T12:41:25.283Z,22.78
2019-05-02T12:42:24.629Z,22.32
2019-05-02T12:43:24.096Z,22.15
2019-05-02T12:44:24.088Z,22.30
2019-05-02T12:45:24.013Z,22.43
2019-05-02T12:46:23.972Z,22.36
2019-05-02T12:47:23.927Z,22.48
2019-05-02T12:48:23.895Z,22.32
2019-05-02T12:49:27.707Z,21.98
2019-05-02T12:50:23.804Z,21.99
2019-05-02T12:51:23.761Z,22.06
2019-05-02T12:52:23.726Z,22.26
2019-05-02T12:53:23.710Z,22.32
2019-05-02T12:54:23.641Z,22.32
2019-05-02T12:55:23.596Z,22.39
2019-05-02T12:56:23.562Z,21.80
2019-05-02T12:57:23.514Z,21.36
2019-05-02T12:58:23.505Z,21.18
2019-05-02T12:59:23.430Z,20.74
2019-05-02T13:00:23.394Z,20.84
2019-05-02T13:01:23.348Z,20.87
2019-05-02T13:02:23.306Z,20.97
2019-05-02T13:03:23.307Z,21.02